createdAt,value
2018-06-19T00:02:20.077Z,15.10
2018-06-19T00:04:48.618Z,14.67
2018-06-19T00:07:17.143Z,13.57
2018-06-19T00:09:45.745Z,14.47
2018-06-19T00:12:14.273Z,13.43
2018-06-19T00:14:42.837Z,15.30
2018-06-19T00:17:11.414Z,14.83
2018-06-19T00:19:46.146Z,16.33
2018-06-19T00:22:14.921Z,15.20
2018-06-19T00:24:43.822Z,15.30
2018-06-19T00:27:12.736Z,13.63
2018-06-19T00:29:41.627Z,15.30
2018-06-19T00:32:10.434Z,13.17
2018-06-19T00:34:38.968Z,14.27
2018-06-19T00:37:07.476Z,10.97
2018-06-19T00:39:36.016Z,12.73
2018-06-19T00:42:04.839Z,10.93
2018-06-19T00:44:38.992Z,11.20
2018-06-19T00:47:07.866Z,10.57
2018-06-19T00:49:36.740Z,10.27
2018-06-19T00:52:05.606Z,12.40
2018-06-19T00:54:34.470Z,13.20
2018-06-19T00:57:03.443Z,11.73
2018-06-19T00:59:32.276Z,12.23
2018-06-19T01:02:01.475Z,12.70
2018-06-19T01:04:30.360Z,14.20
2018-06-19T01:06:59.236Z,17.50
2018-06-19T01:09:28.120Z,14.03
2018-06-19T01:11:56.995Z,16.37
2018-06-19T01:14:25.858Z,14.20
2018-06-19T01:16:54.728Z,14.07
2018-06-19T01:19:23.643Z,17.93
2018-06-19T01:21:52.502Z,16.17
2018-06-19T01:24:21.480Z,21.10
2018-06-19T01:26:50.353Z,16.43
2018-06-19T01:29:19.210Z,16.67
2018-06-19T01:31:48.003Z,16.63
2018-06-19T01:34:16.550Z,15.10
2018-06-19T01:36:45.123Z,17.57
2018-06-19T01:39:13.666Z,13.07
2018-06-19T01:41:42.196Z,14.07
2018-06-19T01:44:10.726Z,16.33
2018-06-19T01:46:39.257Z,14.37
2018-06-19T01:49:07.781Z,16.47
2018-06-19T01:51:36.531Z,15.00
2018-06-19T01:54:05.432Z,12.87
2018-06-19T01:56:34.291Z,11.87
2018-06-19T01:59:03.154Z,12.40
2018-06-19T02:01:32.001Z,13.03
2018-06-19T02:04:00.863Z,14.70
2018-06-19T02:06:29.706Z,13.43
2018-06-19T02:08:58.643Z,16.73
2018-06-19T02:11:27.494Z,16.20
2018-06-19T02:13:56.356Z,20.23
2018-06-19T02:16:25.216Z,18.40
2018-06-19T02:18:54.088Z,15.00
2018-06-19T02:21:22.910Z,17.07
2018-06-19T02:23:51.775Z,16.43
2018-06-19T02:26:20.636Z,18.37
2018-06-19T02:28:49.483Z,18.20
2018-06-19T02:31:18.434Z,15.93
2018-06-19T02:33:47.321Z,14.90
2018-06-19T02:36:15.905Z,17.40
2018-06-19T02:38:44.731Z,15.13
2018-06-19T02:41:13.350Z,13.80
2018-06-19T02:43:41.927Z,15.67
2018-06-19T02:46:10.464Z,18.60
2018-06-19T02:48:38.991Z,16.67
2018-06-19T02:51:07.748Z,16.50
2018-06-19T02:53:36.638Z,18.17
2018-06-19T02:56:05.492Z,17.00
2018-06-19T02:58:34.351Z,10.63
2018-06-19T03:01:03.067Z,14.83
2018-06-19T03:03:31.606Z,17.83
2018-06-19T03:06:00.106Z,15.13
2018-06-19T03:08:28.653Z,14.53
2018-06-19T03:10:57.418Z,14.50
2018-06-19T03:13:26.301Z,13.40
2018-06-19T03:15:55.172Z,11.03
2018-06-19T03:18:24.059Z,11.10
2018-06-19T03:20:52.733Z,11.63
2018-06-19T03:23:21.251Z,12.57
2018-06-19T03:25:49.780Z,12.53
2018-06-19T03:28:18.337Z,9.93
2018-06-19T03:30:46.876Z,11.97
2018-06-19T03:33:15.448Z,16.17
2018-06-19T03:35:44.293Z,15.43
2018-06-19T03:38:12.849Z,17.27
2018-06-19T03:40:41.438Z,16.47
2018-06-19T03:43:09.943Z,15.10
2018-06-19T03:45:38.508Z,15.40
2018-06-19T03:48:07.060Z,18.63
2018-06-19T03:50:35.566Z,16.97
2018-06-19T03:53:04.135Z,18.67
2018-06-19T03:55:32.701Z,17.37
2018-06-19T03:58:01.085Z,16.67
2018-06-19T04:00:29.625Z,15.90
2018-06-19T04:02:58.155Z,15.13
2018-06-19T04:05:26.535Z,16.13
2018-06-19T04:07:55.078Z,14.40
2018-06-19T04:10:23.659Z,11.97
2018-06-19T04:12:52.198Z,14.87
2018-06-19T04:15:20.741Z,12.03
2018-06-19T04:17:49.350Z,12.60
2018-06-19T04:20:17.903Z,12.20
2018-06-19T04:22:46.500Z,13.57
2018-06-19T04:25:15.097Z,11.40
2018-06-19T04:27:43.685Z,12.10
2018-06-19T04:30:12.489Z,12.07
2018-06-19T04:32:41.360Z,12.27
2018-06-19T04:35:10.245Z,11.03
2018-06-19T04:37:39.145Z,10.03
2018-06-19T04:40:07.816Z,9.30
2018-06-19T04:42:36.205Z,9.30
2018-06-19T04:45:05.053Z,10.47
2018-06-19T04:47:33.649Z,12.30
2018-06-19T04:50:02.113Z,12.27
2018-06-19T04:52:30.690Z,11.67
2018-06-19T04:54:59.327Z,13.43
2018-06-19T04:57:28.127Z,10.87
2018-06-19T04:59:56.867Z,9.50
2018-06-19T05:02:25.770Z,11.57
2018-06-19T05:04:54.708Z,8.80
2018-06-19T05:07:23.573Z,9.73
2018-06-19T05:09:52.259Z,8.77
2018-06-19T05:12:20.821Z,7.90
2018-06-19T05:14:49.421Z,10.07
2018-06-19T05:17:18.090Z,11.43
2018-06-19T05:19:46.727Z,10.80
2018-06-19T05:22:15.733Z,7.80
2018-06-19T05:24:44.576Z,10.37
2018-06-19T05:27:13.525Z,11.33
2018-06-19T05:29:42.385Z,11.07
2018-06-19T05:32:11.376Z,11.43
2018-06-19T05:34:40.296Z,11.27
2018-06-19T05:37:09.175Z,11.93
2018-06-19T05:39:37.921Z,10.37
2018-06-19T05:42:06.734Z,10.73
2018-06-19T05:44:35.328Z,9.77
2018-06-19T05:47:04.075Z,9.03
2018-06-19T05:49:32.733Z,11.23
2018-06-19T05:52:01.161Z,9.93
2018-06-19T05:54:29.733Z,10.48
2018-06-19T05:56:58.323Z,8.40
2018-06-19T05:59:27.143Z,8.17
2018-06-19T06:01:56.054Z,10.13
2018-06-19T06:04:24.645Z,9.05
2018-06-19T06:06:53.556Z,10.82
2018-06-19T06:09:22.254Z,10.68
2018-06-19T06:11:50.781Z,9.43
2018-06-19T06:14:19.530Z,24.65
2018-06-19T06:16:48.114Z,11.68
2018-06-19T06:19:16.950Z,14.80
2018-06-19T06:21:45.670Z,12.65
2018-06-19T06:24:14.573Z,18.52
2018-06-19T06:26:43.539Z,14.87
2018-06-19T06:29:12.276Z,11.30
2018-06-19T06:31:40.871Z,8.53
2018-06-19T06:34:09.466Z,13.95
2018-06-19T06:36:38.113Z,8.98
2018-06-19T06:39:08.164Z,8.65
2018-06-19T06:41:37.403Z,7.60
2018-06-19T06:44:06.483Z,7.85
2018-06-19T06:46:35.464Z,6.87
2018-06-19T06:49:04.151Z,8.75
2018-06-19T06:51:32.707Z,7.67
2018-06-19T06:54:01.301Z,11.30
2018-06-19T06:56:29.981Z,7.75
2018-06-19T06:58:58.546Z,10.15
2018-06-19T07:01:27.061Z,7.50
2018-06-19T07:03:55.685Z,7.00
2018-06-19T07:06:24.293Z,7.95
2018-06-19T07:08:52.845Z,9.18
2018-06-19T07:11:21.394Z,9.28
2018-06-19T07:13:50.017Z,8.23
2018-06-19T07:16:18.684Z,6.05
2018-06-19T07:18:47.232Z,5.28
2018-06-19T07:21:15.777Z,8.33
2018-06-19T07:23:44.371Z,9.15
2018-06-19T07:26:13.014Z,8.95
2018-06-19T07:28:41.864Z,7.17
2018-06-19T07:31:10.749Z,8.23
2018-06-19T07:33:39.641Z,7.53
2018-06-19T07:36:08.529Z,4.90
2018-06-19T07:38:37.236Z,6.33
2018-06-19T07:41:05.816Z,9.23
2018-06-19T07:43:34.431Z,6.05
2018-06-19T07:46:02.982Z,7.85
2018-06-19T07:48:31.591Z,7.72
2018-06-19T07:51:00.186Z,6.12
2018-06-19T07:53:29.009Z,9.33
2018-06-19T07:55:58.303Z,4.90
2018-06-19T07:58:26.893Z,6.50
2018-06-19T08:00:55.473Z,8.98
2018-06-19T08:03:24.021Z,9.88
2018-06-19T08:05:52.891Z,10.35
2018-06-19T08:08:21.686Z,7.72
2018-06-19T08:10:50.584Z,8.00
2018-06-19T08:13:19.481Z,5.50
2018-06-19T08:15:48.509Z,6.70
2018-06-19T08:18:17.421Z,9.28
2018-06-19T08:20:46.336Z,9.58
2018-06-19T08:23:14.954Z,5.55
2018-06-19T08:25:43.862Z,7.42
2018-06-19T08:28:12.916Z,5.30
2018-06-19T08:30:41.982Z,5.33
2018-06-19T08:33:10.932Z,7.50
2018-06-19T08:35:39.531Z,8.35
2018-06-19T08:38:08.412Z,7.85
2018-06-19T08:40:37.343Z,8.13
2018-06-19T08:43:06.281Z,8.90
2018-06-19T08:45:35.196Z,4.58
2018-06-19T08:48:03.947Z,8.63
2018-06-19T08:50:32.514Z,6.97
2018-06-19T08:53:01.096Z,5.83
2018-06-19T08:55:29.696Z,8.30
2018-06-19T08:57:58.633Z,7.35
2018-06-19T09:00:27.657Z,5.37
2018-06-19T09:02:56.580Z,4.90
2018-06-19T09:05:25.508Z,7.05
2018-06-19T09:07:54.581Z,4.97
2018-06-19T09:10:23.254Z,4.72
2018-06-19T09:12:51.893Z,7.67
2018-06-19T09:15:20.745Z,5.35
2018-06-19T09:17:49.386Z,6.17
2018-06-19T09:20:18.013Z,4.53
2018-06-19T09:22:46.604Z,8.25
2018-06-19T09:25:15.199Z,6.08
2018-06-19T09:27:43.967Z,5.17
2018-06-19T09:30:12.951Z,7.47
2018-06-19T09:32:41.951Z,5.33
2018-06-19T09:35:11.019Z,4.83
2018-06-19T09:37:39.764Z,3.47
2018-06-19T09:40:08.380Z,4.78
2018-06-19T09:42:37.431Z,8.18
2018-06-19T09:45:06.110Z,4.37
2018-06-19T09:47:35.484Z,4.33
2018-06-19T09:50:04.378Z,7.28
2018-06-19T09:52:33.243Z,5.58
2018-06-19T09:55:02.101Z,4.42
2018-06-19T09:57:31.109Z,7.45
2018-06-19T10:00:00.118Z,6.03
2018-06-19T10:02:29.139Z,5.30
2018-06-19T10:04:58.146Z,3.87
2018-06-19T10:07:27.123Z,5.75
2018-06-19T10:09:56.135Z,5.15
2018-06-19T10:12:25.106Z,3.98
2018-06-19T10:14:54.213Z,4.37
2018-06-19T10:17:23.434Z,4.17
2018-06-19T10:19:52.386Z,4.25
2018-06-19T10:22:21.448Z,7.00
2018-06-19T10:24:50.439Z,5.80
2018-06-19T10:27:19.096Z,5.12
2018-06-19T10:29:47.783Z,3.30
2018-06-19T10:32:16.824Z,4.30
2018-06-19T10:34:45.558Z,5.90
2018-06-19T10:37:14.365Z,4.97
2018-06-19T10:39:42.966Z,5.10
2018-06-19T10:42:11.960Z,4.85
2018-06-19T10:44:40.866Z,4.58
2018-06-19T10:47:09.571Z,5.12
2018-06-19T10:49:38.359Z,5.55
2018-06-19T10:52:06.896Z,3.72
2018-06-19T10:54:35.524Z,5.28
2018-06-19T10:57:04.549Z,5.95
2018-06-19T10:59:33.631Z,5.42
2018-06-19T11:02:02.562Z,7.33
2018-06-19T11:04:31.449Z,10.28
2018-06-19T11:07:00.321Z,5.97
2018-06-19T11:09:29.486Z,5.70
2018-06-19T11:11:58.390Z,9.55
2018-06-19T11:14:28.546Z,10.13
2018-06-19T11:16:57.211Z,6.55
2018-06-19T11:19:25.845Z,3.52
2018-06-19T11:21:54.366Z,5.80
2018-06-19T11:24:22.966Z,4.00
2018-06-19T11:26:51.841Z,3.10
2018-06-19T11:29:21.174Z,3.10
2018-06-19T11:31:50.201Z,3.10
2018-06-19T11:34:19.153Z,4.95
2018-06-19T11:36:47.713Z,6.85
2018-06-19T11:39:16.273Z,5.72
2018-06-19T11:41:44.894Z,5.28
2018-06-19T11:44:13.663Z,6.45
2018-06-19T11:46:43.121Z,5.12
2018-06-19T11:49:12.860Z,5.47
2018-06-19T11:51:41.884Z,4.05
2018-06-19T11:54:11.807Z,3.87
2018-06-19T11:56:40.722Z,8.53
2018-06-19T11:59:09.411Z,4.37
2018-06-19T12:01:38.101Z,4.67
2018-06-19T12:04:07.234Z,2.92
2018-06-19T12:06:36.087Z,3.25
2018-06-19T12:09:06.354Z,5.10
2018-06-19T12:11:35.142Z,3.15
2018-06-19T12:14:04.103Z,4.35
2018-06-19T12:16:33.347Z,4.25
2018-06-19T12:19:02.497Z,4.33
2018-06-19T12:21:31.474Z,3.25
2018-06-19T12:24:00.725Z,4.67
2018-06-19T12:26:29.874Z,4.53
2018-06-19T12:28:58.963Z,4.28
2018-06-19T12:31:27.986Z,7.65
2018-06-19T12:33:57.131Z,4.58
2018-06-19T12:36:26.277Z,5.20
2018-06-19T12:38:55.359Z,4.78
2018-06-19T12:41:39.861Z,7.80
2018-06-19T12:44:08.981Z,3.75
2018-06-19T12:46:38.749Z,3.20
2018-06-19T12:49:08.276Z,4.10
2018-06-19T12:52:02.881Z,3.62
2018-06-19T12:56:43.842Z,3.80
2018-06-19T12:59:13.046Z,4.60
2018-06-19T13:01:41.980Z,3.22
2018-06-19T13:04:27.610Z,3.95
2018-06-19T13:06:56.309Z,3.65
2018-06-19T13:09:24.899Z,3.77
2018-06-19T13:11:53.610Z,6.72
2018-06-19T13:14:39.132Z,8.45
2018-06-19T13:17:24.811Z,5.28
2018-06-19T13:20:10.362Z,6.97
2018-06-19T13:22:39.336Z,4.58
2018-06-19T13:25:08.321Z,4.20
2018-06-19T13:27:37.311Z,3.90
2018-06-19T13:30:23.173Z,2.85
2018-06-19T13:32:52.084Z,5.75
2018-06-19T13:35:21.048Z,5.70
2018-06-19T13:37:50.146Z,4.20
2018-06-19T13:42:37.741Z,3.92
2018-06-19T13:45:07.820Z,4.47
2018-06-19T13:47:36.567Z,3.15
2018-06-19T13:50:05.144Z,4.58
2018-06-19T13:52:33.809Z,4.92
2018-06-19T13:57:30.696Z,2.72
2018-06-19T14:00:00.674Z,6.35
2018-06-19T14:02:29.303Z,3.00
2018-06-19T14:04:58.108Z,4.72
2018-06-19T14:07:27.761Z,3.42
2018-06-19T14:10:20.256Z,3.92
2018-06-19T14:12:52.493Z,4.03
2018-06-19T14:15:22.044Z,5.55
2018-06-19T14:17:51.072Z,4.03
2018-06-19T14:20:20.031Z,5.40
2018-06-19T14:22:49.128Z,3.62
2018-06-19T14:25:18.521Z,6.90
2018-06-19T14:27:47.436Z,3.95
2018-06-19T14:30:16.012Z,5.00
2018-06-19T14:32:45.437Z,5.35
2018-06-19T14:35:14.119Z,6.65
2018-06-19T14:37:43.312Z,4.72
2018-06-19T14:40:12.609Z,3.00
2018-06-19T14:42:41.583Z,4.30
2018-06-19T14:45:10.976Z,4.35
2018-06-19T14:47:39.847Z,2.87
2018-06-19T14:50:08.524Z,2.83
2018-06-19T14:52:37.265Z,3.25
2018-06-19T14:55:06.954Z,6.17
2018-06-19T14:57:35.586Z,4.78
2018-06-19T15:00:05.264Z,4.30
2018-06-19T15:02:33.874Z,6.28
2018-06-19T15:05:02.491Z,6.97
2018-06-19T15:07:53.196Z,4.12
2018-06-19T15:10:22.619Z,3.45
2018-06-19T15:12:51.534Z,4.90
2018-06-19T15:15:20.233Z,4.10
2018-06-19T15:17:57.595Z,4.47
2018-06-19T15:20:27.121Z,9.95
2018-06-19T15:22:55.736Z,7.03
2018-06-19T15:25:24.361Z,8.80
2018-06-19T15:27:53.288Z,11.97
2018-06-19T15:30:22.348Z,10.32
2018-06-19T15:32:51.231Z,14.70
2018-06-19T15:35:20.303Z,8.70
2018-06-19T15:37:49.230Z,7.62
2018-06-19T15:40:18.209Z,4.05
2018-06-19T15:42:47.225Z,5.53
2018-06-19T15:45:16.166Z,3.15
2018-06-19T15:47:45.348Z,7.47
2018-06-19T15:50:14.016Z,4.17
2018-06-19T15:52:43.598Z,4.97
2018-06-19T15:55:12.312Z,5.42
2018-06-19T15:57:41.181Z,5.65
2018-06-19T16:00:10.293Z,10.60
2018-06-19T16:02:39.275Z,6.62
2018-06-19T16:05:08.274Z,7.67
2018-06-19T16:07:42.093Z,5.87
2018-06-19T16:10:11.241Z,4.37
2018-06-19T16:12:40.203Z,14.15
2018-06-19T16:15:10.168Z,6.25
2018-06-19T16:17:39.147Z,5.58
2018-06-19T16:20:08.266Z,5.22
2018-06-19T16:22:37.242Z,8.13
2018-06-19T16:25:06.241Z,7.70
2018-06-19T16:27:35.234Z,4.65
2018-06-19T16:30:04.366Z,6.42
2018-06-19T16:32:33.271Z,5.55
2018-06-19T16:35:02.217Z,4.50
2018-06-19T16:37:31.131Z,5.33
2018-06-19T16:40:00.017Z,3.85
2018-06-19T16:42:28.940Z,5.03
2018-06-19T16:44:57.848Z,6.33
2018-06-19T16:47:26.664Z,5.65
2018-06-19T16:49:55.344Z,4.15
2018-06-19T16:52:24.062Z,3.83
2018-06-19T16:54:52.794Z,4.92
2018-06-19T16:57:21.431Z,4.97
2018-06-19T16:59:50.268Z,4.92
2018-06-19T17:02:18.960Z,5.47
2018-06-19T17:04:47.596Z,7.22
2018-06-19T17:07:16.261Z,7.17
2018-06-19T17:09:44.886Z,4.85
2018-06-19T17:12:13.448Z,8.68
2018-06-19T17:14:42.013Z,6.97
2018-06-19T17:17:10.654Z,7.03
2018-06-19T17:19:39.216Z,6.92
2018-06-19T17:22:07.760Z,7.67
2018-06-19T17:24:36.326Z,12.50
2018-06-19T17:27:05.076Z,6.33
2018-06-19T17:29:34.030Z,6.22
2018-06-19T17:32:02.894Z,8.80
2018-06-19T17:34:31.808Z,5.40
2018-06-19T17:37:00.533Z,5.15
2018-06-19T17:39:29.123Z,4.83
2018-06-19T17:41:57.699Z,5.90
2018-06-19T17:44:26.334Z,6.30
2018-06-19T17:46:55.178Z,6.22
2018-06-19T17:49:24.600Z,6.17
2018-06-19T17:51:53.176Z,4.40
2018-06-19T17:54:21.743Z,5.90
2018-06-19T17:56:50.576Z,7.23
2018-06-19T17:59:19.434Z,9.53
2018-06-19T18:01:48.503Z,9.43
2018-06-19T18:04:17.626Z,9.67
2018-06-19T18:06:46.518Z,7.00
2018-06-19T18:09:15.526Z,8.00
2018-06-19T18:11:44.504Z,6.90
2018-06-19T18:14:13.421Z,12.80
2018-06-19T18:16:42.956Z,8.53
2018-06-19T18:19:11.904Z,5.47
2018-06-19T18:21:40.920Z,5.77
2018-06-19T18:24:09.997Z,8.70
2018-06-19T18:26:39.425Z,5.53
2018-06-19T18:29:08.533Z,5.87
2018-06-19T18:31:37.504Z,6.93
2018-06-19T18:34:06.595Z,4.43
2018-06-19T18:36:35.507Z,9.43
2018-06-19T18:39:06.971Z,5.60
2018-06-19T18:41:36.006Z,5.93
2018-06-19T18:44:05.051Z,8.47
2018-06-19T18:46:34.121Z,6.53
2018-06-19T18:49:02.760Z,5.37
2018-06-19T18:51:31.329Z,8.47
2018-06-19T18:54:00.069Z,6.83
2018-06-19T18:56:28.889Z,4.30
2018-06-19T18:58:57.801Z,7.30
2018-06-19T19:01:26.760Z,6.17
2018-06-19T19:03:55.817Z,4.73
2018-06-19T19:06:24.933Z,6.40
2018-06-19T19:08:54.175Z,6.53
2018-06-19T19:11:23.226Z,9.70
2018-06-19T19:13:52.261Z,8.30
2018-06-19T19:17:27.403Z,7.33
2018-06-19T19:19:56.193Z,5.20
2018-06-19T19:22:24.857Z,5.37
2018-06-19T19:24:53.561Z,6.53
2018-06-19T19:27:27.691Z,9.67
2018-06-19T19:29:56.349Z,7.57
2018-06-19T19:32:25.414Z,7.60
2018-06-19T19:34:54.049Z,5.63
2018-06-19T19:37:28.563Z,5.70
2018-06-19T19:39:57.463Z,7.70
2018-06-19T19:42:26.459Z,13.70
2018-06-19T19:44:55.443Z,6.17
2018-06-19T19:47:30.244Z,6.23
2018-06-19T19:49:59.163Z,5.83
2018-06-19T19:52:28.241Z,6.33
2018-06-19T19:54:57.322Z,8.40
2018-06-19T19:57:32.716Z,6.27
2018-06-19T20:00:01.436Z,6.03
2018-06-19T20:02:30.157Z,8.50
2018-06-19T20:04:59.074Z,7.30
2018-06-19T20:07:27.883Z,8.43
2018-06-19T20:09:56.596Z,6.00
2018-06-19T20:12:25.216Z,6.57
2018-06-19T20:14:54.148Z,7.40
2018-06-19T20:17:23.079Z,7.77
2018-06-19T20:19:51.836Z,6.10
2018-06-19T20:22:20.621Z,8.23
2018-06-19T20:24:49.238Z,5.03
2018-06-19T20:27:17.881Z,6.23
2018-06-19T20:29:46.964Z,9.17
2018-06-19T20:32:16.869Z,6.10
2018-06-19T20:34:46.263Z,6.43
2018-06-19T20:37:15.266Z,6.63
2018-06-19T20:39:44.168Z,8.53
2018-06-19T20:42:12.819Z,8.00
2018-06-19T20:44:41.864Z,6.97
2018-06-19T20:47:10.273Z,5.57
2018-06-19T20:49:38.924Z,8.37
2018-06-19T20:52:08.602Z,5.83
2018-06-19T20:54:37.454Z,5.17
2018-06-19T20:57:06.224Z,7.20
2018-06-19T20:59:35.079Z,7.63
2018-06-19T21:02:03.859Z,9.97
2018-06-19T21:04:32.503Z,6.60
2018-06-19T21:07:01.121Z,5.57
2018-06-19T21:09:30.069Z,6.30
2018-06-19T21:11:59.164Z,10.10
2018-06-19T21:14:28.648Z,6.43
2018-06-19T21:16:57.687Z,8.10
2018-06-19T21:19:26.496Z,5.20
2018-06-19T21:21:55.406Z,6.43
2018-06-19T21:24:24.074Z,7.73
2018-06-19T21:26:52.794Z,6.60
2018-06-19T21:29:21.524Z,5.20
2018-06-19T21:31:50.534Z,8.10
2018-06-19T21:34:30.378Z,5.73
2018-06-19T21:36:59.544Z,6.63
2018-06-19T21:39:30.867Z,5.80
2018-06-19T21:42:00.112Z,6.73
2018-06-19T21:44:29.025Z,7.63
2018-06-19T21:50:13.461Z,5.07
2018-06-19T21:52:42.136Z,6.60
2018-06-19T21:55:10.675Z,4.57
2018-06-19T21:57:39.615Z,4.93
2018-06-19T22:00:08.561Z,5.67
2018-06-19T22:02:37.403Z,6.43
2018-06-19T22:05:06.298Z,5.60
2018-06-19T22:07:35.212Z,6.30
2018-06-19T22:10:04.245Z,5.10
2018-06-19T22:12:33.329Z,5.33
2018-06-19T22:15:02.264Z,6.73
2018-06-19T22:17:31.358Z,5.10
2018-06-19T22:20:00.329Z,6.80
2018-06-19T22:22:29.266Z,7.47
2018-06-19T22:24:58.211Z,7.80
2018-06-19T22:27:27.093Z,8.17
2018-06-19T22:29:56.041Z,6.63
2018-06-19T22:32:25.053Z,9.97
2018-06-19T22:34:53.973Z,7.47
2018-06-19T22:37:23.043Z,7.50
2018-06-19T22:39:51.954Z,5.40
2018-06-19T22:42:20.908Z,9.57
2018-06-19T22:44:49.808Z,5.60
2018-06-19T22:47:18.723Z,7.00
2018-06-19T22:49:47.736Z,7.07
2018-06-19T22:52:16.660Z,6.87
2018-06-19T22:54:46.309Z,6.33
2018-06-19T22:57:14.986Z,5.20
2018-06-19T22:59:43.563Z,6.90
2018-06-19T23:02:12.483Z,5.70
2018-06-19T23:04:41.545Z,6.47
2018-06-19T23:07:10.079Z,6.43
2018-06-19T23:09:38.614Z,7.27
2018-06-19T23:12:07.131Z,8.20
2018-06-19T23:14:35.673Z,5.73
2018-06-19T23:17:04.493Z,6.87
2018-06-19T23:19:33.401Z,5.33
2018-06-19T23:22:02.328Z,7.00
2018-06-19T23:24:31.263Z,7.53
2018-06-19T23:26:59.946Z,7.20
2018-06-19T23:29:28.628Z,9.80
2018-06-19T23:31:57.280Z,7.27
2018-06-19T23:34:25.909Z,7.33
2018-06-19T23:36:54.528Z,5.93
2018-06-19T23:39:23.165Z,6.53
2018-06-19T23:41:51.786Z,4.50
2018-06-19T23:44:20.803Z,8.33
2018-06-19T23:47:19.100Z,5.70
2018-06-19T23:49:48.056Z,5.40
2018-06-19T23:52:17.081Z,5.30
2018-06-19T23:54:46.026Z,6.40
2018-06-19T23:57:14.685Z,5.40
2018-06-19T23:59:43.885Z,6.67
